Time;durP1;ratioP1;P1;durP2;ratioP2;P2;SDS_P1;SDS_P2;PMS_P1;PMS_P2;Temp;Humidity;BMP_temperature;BMP_pressure;BME280_temperature;BME280_humidity;BME280_pressure;Samples;Min_cycle;Max_cycle;Signal;HPM_P1;HPM_P2
2022/12/08 00:01:17;;;;;;;18.88;12.95;;;22.00;58.70;;;;;;5092238;28;20040;-71
2022/12/08 00:03:43;;;;;;;22.52;13.65;;;22.00;58.80;;;;;;5092704;28;20036;-70
2022/12/08 00:09:34;;;;;;;21.73;13.63;;;21.90;58.90;;;;;;5092873;28;20032;-71
2022/12/08 00:12:01;;;;;;;22.98;13.52;;;21.90;59.00;;;;;;5092784;28;20078;-71
2022/12/08 00:14:36;;;;;;;20.88;12.95;;;21.90;58.90;;;;;;5092799;28;20034;-70
2022/12/08 00:17:03;;;;;;;22.55;13.38;;;21.80;58.70;;;;;;5092873;28;20040;-71
2022/12/08 00:19:30;;;;;;;24.58;13.35;;;21.90;58.60;;;;;;5030063;28;20041;-71
2022/12/08 00:21:56;;;;;;;19.50;12.43;;;21.90;58.60;;;;;;5029729;28;20426;-70
2022/12/08 00:24:24;;;;;;;18.88;12.60;;;21.80;58.50;;;;;;5029697;28;20522;-71
2022/12/08 00:26:50;;;;;;;20.90;12.85;;;21.90;58.50;;;;;;5026605;28;20037;-71
2022/12/08 00:29:17;;;;;;;18.35;12.27;;;21.80;58.50;;;;;;5029897;28;20045;-70
2022/12/08 00:31:43;;;;;;;20.67;12.98;;;21.80;58.50;;;;;;5029734;28;20053;-71
2022/12/08 00:34:12;;;;;;;19.33;13.05;;;21.70;58.40;;;;;;5029878;28;20528;-70
2022/12/08 00:36:38;;;;;;;19.80;12.60;;;21.70;58.40;;;;;;5029498;28;20733;-71
2022/12/08 00:39:05;;;;;;;20.63;13.20;;;21.70;58.60;;;;;;5029641;28;20099;-70
2022/12/08 00:44:19;;;;;;;19.25;13.07;;;21.60;58.40;;;;;;5029643;28;20049;-70
2022/12/08 00:46:47;;;;;;;18.10;11.68;;;21.80;58.50;;;;;;5029590;28;20036;-70
2022/12/08 00:49:13;;;;;;;21.80;12.52;;;21.70;58.40;;;;;;5029266;28;20430;-70
2022/12/08 00:51:40;;;;;;;21.92;11.93;;;21.80;58.40;;;;;;5029473;28;20052;-70
2022/12/08 00:54:06;;;;;;;20.40;13.07;;;21.60;58.30;;;;;;5029139;28;20072;-70
2022/12/08 00:56:33;;;;;;;22.63;13.95;;;21.60;58.40;;;;;;5049966;28;20140;-70
2022/12/08 00:58:59;;;;;;;21.42;14.63;;;21.70;58.60;;;;;;5091729;28;20078;-70
2022/12/08 01:01:26;;;;;;;18.88;12.73;;;21.60;58.40;;;;;;5089896;28;20489;-70
2022/12/08 01:03:52;;;;;;;15.25;11.73;;;21.70;58.40;;;;;;5038070;28;20535;-70
2022/12/08 01:06:18;;;;;;;19.23;12.23;;;21.60;58.20;;;;;;5071501;28;20549;-70
2022/12/08 01:08:44;;;;;;;19.65;13.07;;;21.70;58.40;;;;;;5036534;28;20500;-70
2022/12/08 01:11:16;;;;;;;15.88;11.50;;;21.70;58.40;;;;;;5055539;28;20043;-70
2022/12/08 01:13:43;;;;;;;14.63;10.68;;;21.70;58.40;;;;;;5051268;28;20393;-70
2022/12/08 01:16:09;;;;;;;18.10;12.57;;;21.70;58.30;;;;;;5051555;28;20041;-70
2022/12/08 01:18:35;;;;;;;21.88;14.27;;;21.80;58.10;;;;;;5051003;28;20377;-70
2022/12/08 01:21:10;;;;;;;19.25;13.40;;;21.70;58.10;;;;;;5016115;28;20222;-70
2022/12/08 01:23:36;;;;;;;19.65;13.35;;;21.60;58.10;;;;;;5016021;28;20044;-71
2022/12/08 01:26:07;;;;;;;18.27;13.20;;;21.60;58.10;;;;;;5051379;28;20044;-70
2022/12/08 01:28:33;;;;;;;16.77;11.27;;;21.40;58.00;;;;;;5051095;28;20516;-70
2022/12/08 01:31:00;;;;;;;16.80;11.82;;;21.40;58.00;;;;;;5050986;28;20066;-70
2022/12/08 01:33:27;;;;;;;16.52;11.70;;;21.40;58.00;;;;;;5050998;28;20039;-70
2022/12/08 01:35:54;;;;;;;17.90;12.70;;;21.50;58.20;;;;;;5016720;28;20081;-70
2022/12/08 01:38:21;;;;;;;19.13;11.48;;;21.30;58.10;;;;;;5050659;28;20041;-70
2022/12/08 01:40:48;;;;;;;16.52;10.85;;;21.40;58.00;;;;;;5033035;28;20068;-70
2022/12/08 01:43:19;;;;;;;18.95;11.93;;;21.40;58.10;;;;;;5050616;28;20126;-70
2022/12/08 01:45:46;;;;;;;14.40;11.27;;;21.40;58.10;;;;;;5033213;28;20040;-70
2022/12/08 01:48:23;;;;;;;12.55;9.85;;;21.30;58.00;;;;;;5051116;28;20485;-70
2022/12/08 01:50:50;;;;;;;10.90;8.35;;;21.30;57.90;;;;;;5051036;28;20029;-70
2022/12/08 01:53:22;;;;;;;12.68;9.38;;;21.30;57.90;;;;;;5032951;28;20393;-70
2022/12/08 01:56:12;;;;;;;10.15;8.10;;;21.30;57.90;;;;;;5050381;28;20038;-70
2022/12/08 01:58:42;;;;;;;8.45;7.38;;;21.30;57.90;;;;;;5050810;28;20040;-70
2022/12/08 02:01:09;;;;;;;10.40;8.55;;;21.20;57.80;;;;;;5050579;28;20481;-70
2022/12/08 02:03:58;;;;;;;11.35;8.82;;;21.20;57.70;;;;;;5050809;28;20036;-70
2022/12/08 02:06:27;;;;;;;11.30;8.65;;;21.20;57.80;;;;;;5050621;28;20548;-70
2022/12/08 02:08:54;;;;;;;11.55;8.52;;;21.10;57.70;;;;;;5050544;28;20039;-70
2022/12/08 02:11:20;;;;;;;9.80;7.93;;;21.10;57.70;;;;;;5050425;28;20049;-70
2022/12/08 02:13:48;;;;;;;10.75;8.35;;;21.20;57.70;;;;;;5050808;28;20458;-70
2022/12/08 02:16:48;;;;;;;11.80;9.30;;;21.10;57.60;;;;;;5050501;28;20469;-70
2022/12/08 02:19:45;;;;;;;10.35;8.65;;;21.10;57.50;;;;;;5051326;28;20036;-70
2022/12/08 02:22:30;;;;;;;9.10;7.53;;;21.30;57.50;;;;;;5054791;28;20247;-70
2022/12/08 02:25:14;;;;;;;10.57;7.72;;;21.20;57.40;;;;;;5054673;28;20079;-70
2022/12/08 02:28:25;;;;;;;13.57;10.80;;;21.20;57.30;;;;;;5036876;28;20111;-70
2022/12/08 02:31:17;;;;;;;14.73;9.95;;;21.20;57.20;;;;;;5004145;28;20081;-70
2022/12/08 02:34:03;;;;;;;11.55;8.93;;;21.30;57.20;;;;;;4995735;28;20034;-70
2022/12/08 02:36:36;;;;;;;12.70;8.25;;;21.20;57.10;;;;;;5012027;28;20061;-70
2022/12/08 02:39:08;;;;;;;9.98;8.15;;;21.30;57.10;;;;;;5011892;28;20046;-70
2022/12/08 02:42:12;;;;;;;9.65;7.90;;;21.30;57.00;;;;;;5011933;28;20604;-70
2022/12/08 02:44:50;;;;;;;10.20;7.75;;;21.20;56.80;;;;;;4953665;29;20050;-70
2022/12/08 02:47:19;;;;;;;10.55;7.95;;;21.10;56.80;;;;;;4953654;29;20047;-70
2022/12/08 02:49:45;;;;;;;10.75;8.10;;;21.20;56.80;;;;;;4953263;29;20051;-70
2022/12/08 02:52:11;;;;;;;9.98;8.30;;;21.10;56.80;;;;;;4953856;29;20035;-70
2022/12/08 02:54:46;;;;;;;11.15;7.70;;;21.10;56.80;;;;;;4953188;29;20410;-70
2022/12/08 02:57:38;;;;;;;9.65;7.88;;;21.10;57.00;;;;;;4950135;29;20465;-69
2022/12/08 03:00:14;;;;;;;10.52;7.35;;;21.00;56.80;;;;;;4953291;28;20098;-71
2022/12/08 03:02:46;;;;;;;12.60;8.27;;;21.00;56.80;;;;;;4952976;29;20047;-70
2022/12/08 03:05:29;;;;;;;14.52;9.95;;;21.00;56.90;;;;;;4952997;29;20058;-70
2022/12/08 03:08:16;;;;;;;20.70;13.18;;;20.90;56.80;;;;;;4939027;29;20052;-71
2022/12/08 03:11:04;;;;;;;13.73;9.95;;;21.10;57.00;;;;;;4926163;29;20076;-70
2022/12/08 03:13:41;;;;;;;13.48;8.50;;;20.90;56.80;;;;;;4933249;29;20134;-69
2022/12/08 03:16:09;;;;;;;8.70;7.78;;;20.90;56.80;;;;;;4932905;29;20032;-70
2022/12/08 03:18:39;;;;;;;11.02;8.45;;;21.00;56.70;;;;;;4932855;29;20050;-70
2022/12/08 03:21:07;;;;;;;8.73;6.88;;;20.90;56.70;;;;;;4947894;28;20054;-70
2022/12/08 03:23:36;;;;;;;10.75;8.27;;;21.00;56.70;;;;;;4972322;28;20593;-70
2022/12/08 03:26:15;;;;;;;11.48;7.47;;;20.90;56.70;;;;;;4972193;28;20046;-71
2022/12/08 03:28:41;;;;;;;8.30;7.00;;;20.90;56.70;;;;;;4972120;28;20047;-70
2022/12/08 03:31:11;;;;;;;8.70;7.32;;;20.80;56.60;;;;;;4971684;28;20431;-70
2022/12/08 03:33:42;;;;;;;8.00;7.20;;;20.80;56.60;;;;;;4971811;28;20089;-70
2022/12/08 03:36:10;;;;;;;7.93;7.13;;;20.80;56.60;;;;;;4972226;28;20038;-70
2022/12/08 03:38:42;;;;;;;8.65;6.70;;;20.80;56.60;;;;;;4939444;28;20047;-70
2022/12/08 03:41:17;;;;;;;8.02;6.70;;;20.80;56.60;;;;;;4971949;28;20047;-70
2022/12/08 03:43:58;;;;;;;8.30;6.18;;;20.80;56.50;;;;;;4971713;28;20038;-70
2022/12/08 03:46:27;;;;;;;8.05;6.15;;;20.90;56.50;;;;;;4971915;28;20113;-70
2022/12/08 03:48:53;;;;;;;8.88;7.03;;;20.90;56.50;;;;;;5027296;28;20136;-70
2022/12/08 03:51:19;;;;;;;7.72;6.47;;;20.90;56.40;;;;;;5061600;28;20064;-70
2022/12/08 03:53:46;;;;;;;10.18;6.55;;;20.90;56.30;;;;;;5072744;28;20028;-70
2022/12/08 03:56:36;;;;;;;7.68;6.35;;;20.90;56.20;;;;;;5073061;28;20543;-70
2022/12/08 03:59:04;;;;;;;8.80;6.72;;;20.90;56.10;;;;;;5030053;28;20060;-70
2022/12/08 04:01:30;;;;;;;9.32;6.22;;;21.00;56.10;;;;;;5030363;28;20045;-70
2022/12/08 04:03:55;;;;;;;7.82;6.20;;;20.90;56.00;;;;;;5029992;28;20524;-70
2022/12/08 04:06:22;;;;;;;7.47;6.45;;;20.90;55.90;;;;;;5030318;28;20037;-70
2022/12/08 04:08:49;;;;;;;8.18;6.55;;;20.90;55.90;;;;;;5013782;28;20025;-70
2022/12/08 04:11:15;;;;;;;8.05;6.72;;;21.00;55.80;;;;;;5046585;28;20053;-70
2022/12/08 04:13:42;;;;;;;7.72;6.45;;;20.90;55.80;;;;;;5050073;28;20478;-70
2022/12/08 04:16:18;;;;;;;11.23;7.88;;;20.80;55.70;;;;;;5050143;28;20045;-70
2022/12/08 04:18:44;;;;;;;8.55;7.38;;;20.60;55.60;;;;;;5049964;28;20025;-70
2022/12/08 04:21:10;;;;;;;23.85;13.13;;;20.80;55.80;;;;;;5049935;28;20606;-70
2022/12/08 04:23:36;;;;;;;18.00;10.75;;;20.70;55.80;;;;;;5049338;28;20124;-70
2022/12/08 04:26:02;;;;;;;14.77;10.15;;;20.80;55.90;;;;;;5032049;28;20045;-70
2022/12/08 04:28:28;;;;;;;9.60;7.15;;;20.70;55.90;;;;;;5029572;28;20702;-70
2022/12/08 04:30:55;;;;;;;9.82;6.75;;;20.80;56.00;;;;;;5029893;28;20084;-70
2022/12/08 04:33:21;;;;;;;9.25;6.40;;;20.70;55.90;;;;;;5029906;28;20111;-70
2022/12/08 04:35:47;;;;;;;9.65;7.15;;;20.70;55.80;;;;;;5046416;28;20048;-70
2022/12/08 04:38:13;;;;;;;6.97;6.15;;;20.80;55.70;;;;;;5072179;28;20086;-70
2022/12/08 04:40:39;;;;;;;8.05;6.13;;;20.90;55.60;;;;;;5071892;28;20071;-70
2022/12/08 04:43:05;;;;;;;7.15;5.43;;;20.90;55.50;;;;;;5071436;28;20028;-70
2022/12/08 04:45:32;;;;;;;8.95;6.95;;;20.90;55.50;;;;;;5072015;28;20111;-70
2022/12/08 04:47:59;;;;;;;10.20;6.07;;;21.10;54.90;;;;;;5071810;28;20028;-70
2022/12/08 04:50:26;;;;;;;8.80;5.80;;;21.20;54.50;;;;;;5072003;28;20080;-71
2022/12/08 04:52:52;;;;;;;11.15;6.95;;;21.30;54.70;;;;;;5071669;28;20032;-70
2022/12/08 04:55:18;;;;;;;7.38;6.60;;;21.40;54.70;;;;;;5071987;28;20687;-70
2022/12/08 04:57:45;;;;;;;9.02;6.75;;;21.30;54.50;;;;;;5071777;28;20041;-70
2022/12/08 05:00:12;;;;;;;12.32;7.30;;;21.30;54.60;;;;;;5071718;28;20076;-70
2022/12/08 05:02:38;;;;;;;10.00;6.88;;;21.30;54.70;;;;;;5071936;28;20033;-71
2022/12/08 05:05:05;;;;;;;9.55;7.55;;;21.50;55.00;;;;;;5073305;28;20453;-71
2022/12/08 05:07:31;;;;;;;10.85;6.30;;;21.50;54.60;;;;;;5036024;28;20037;-69
2022/12/08 05:09:57;;;;;;;8.48;6.55;;;21.20;54.80;;;;;;5065400;28;20075;-69
2022/12/08 05:12:23;;;;;;;10.00;7.60;;;21.40;58.60;;;;;;5033953;28;20075;-71
2022/12/08 05:14:49;;;;;;;16.52;9.63;;;22.00;62.20;;;;;;5051395;28;20040;-70
2022/12/08 05:17:17;;;;;;;17.23;11.10;;;22.30;63.20;;;;;;5051565;28;20029;-69
2022/12/08 05:19:43;;;;;;;17.85;10.77;;;22.20;63.10;;;;;;5051748;28;20477;-72
2022/12/08 05:22:09;;;;;;;15.68;9.40;;;22.10;63.20;;;;;;5051128;28;20044;-72
2022/12/08 05:24:35;;;;;;;10.57;8.18;;;22.10;63.40;;;;;;5051091;28;20048;-71
2022/12/08 05:27:01;;;;;;;9.32;6.85;;;22.00;58.60;;;;;;5051121;28;20036;-71
2022/12/08 05:29:27;;;;;;;11.25;8.30;;;22.00;58.20;;;;;;5051198;28;20064;-70
2022/12/08 05:31:53;;;;;;;13.25;10.05;;;21.80;57.90;;;;;;5051183;28;20107;-72
2022/12/08 05:34:19;;;;;;;15.98;9.07;;;21.80;58.10;;;;;;5051326;28;20532;-71
2022/12/08 05:36:45;;;;;;;9.38;7.88;;;21.60;58.20;;;;;;5050416;28;20037;-71
2022/12/08 05:39:12;;;;;;;10.40;7.07;;;21.60;58.80;;;;;;5050828;28;20021;-71
2022/12/08 05:41:38;;;;;;;8.52;6.75;;;21.70;59.10;;;;;;5051181;28;20423;-71
2022/12/08 05:44:04;;;;;;;9.60;6.63;;;21.40;59.00;;;;;;5051105;28;20508;-71
2022/12/08 05:46:30;;;;;;;8.50;6.78;;;21.50;59.20;;;;;;5050986;28;20115;-70
2022/12/08 05:48:59;;;;;;;9.15;6.28;;;21.40;59.40;;;;;;5050638;28;20052;-75
2022/12/08 05:51:25;;;;;;;10.55;6.57;;;21.50;60.10;;;;;;5050947;28;20036;-77
2022/12/08 05:53:52;;;;;;;12.20;6.50;;;21.70;58.30;;;;;;5051118;28;20458;-77
2022/12/08 05:56:18;;;;;;;10.90;6.57;;;21.90;57.00;;;;;;5051033;28;20425;-77
2022/12/08 05:58:45;;;;;;;8.65;6.13;;;22.00;56.10;;;;;;5033029;28;20036;-78
2022/12/08 06:01:24;;;;;;;13.30;8.73;;;22.10;55.40;;;;;;5050652;28;20167;-70
2022/12/08 06:03:51;;;;;;;13.48;8.05;;;22.10;54.50;;;;;;5050669;28;20563;-70
2022/12/08 06:06:17;;;;;;;10.85;7.82;;;22.10;57.90;;;;;;5050623;28;20116;-72
2022/12/08 06:08:43;;;;;;;13.43;9.18;;;22.20;59.80;;;;;;5050410;28;20187;-70
2022/12/08 06:11:15;;;;;;;8.30;7.38;;;22.10;51.80;;;;;;5050992;28;20753;-70
2022/12/08 06:13:41;;;;;;;9.23;7.73;;;22.00;49.60;;;;;;5050687;28;20058;-70
2022/12/08 06:16:07;;;;;;;8.00;6.75;;;22.00;51.10;;;;;;5050558;28;20037;-71
2022/12/08 06:18:33;;;;;;;9.85;7.22;;;22.10;51.80;;;;;;5050460;28;20029;-70
2022/12/08 06:21:08;;;;;;;9.57;8.00;;;22.20;51.20;;;;;;5050474;28;20138;-70
2022/12/08 06:23:34;;;;;;;9.30;8.27;;;22.20;49.90;;;;;;5050338;28;20478;-72
2022/12/08 06:26:06;;;;;;;10.60;8.45;;;22.30;49.70;;;;;;5053150;28;20037;-70
2022/12/08 06:28:33;;;;;;;10.10;8.82;;;22.20;49.60;;;;;;5050284;28;20041;-70
2022/12/08 06:30:59;;;;;;;13.10;10.75;;;22.00;49.00;;;;;;5058029;28;20464;-70
2022/12/08 06:33:26;;;;;;;12.95;9.95;;;22.10;49.70;;;;;;5070374;28;20067;-69
2022/12/08 06:35:52;;;;;;;13.77;10.60;;;22.10;50.10;;;;;;5064028;28;20612;-72
2022/12/08 06:38:18;;;;;;;14.80;11.50;;;22.00;47.60;;;;;;5058169;28;20029;-75
2022/12/08 06:40:51;;;;;;;11.90;9.70;;;22.00;47.00;;;;;;5059314;28;20107;-72
2022/12/08 06:43:18;;;;;;;;;;;21.90;46.40;;;;;;5064373;28;20025;-72
2022/12/08 06:45:43;;;;;;;9.40;7.22;;;22.00;54.70;;;;;;5032356;28;20281;-70
2022/12/08 06:48:09;;;;;;;13.32;9.23;;;22.20;57.50;;;;;;5050005;28;20043;-71
2022/12/08 06:50:35;;;;;;;11.90;8.68;;;22.20;57.80;;;;;;5050315;28;20040;-72
2022/12/08 06:53:01;;;;;;;12.70;9.55;;;22.10;58.40;;;;;;5055981;28;20028;-71
2022/12/08 06:55:27;;;;;;;13.65;9.90;;;22.10;58.90;;;;;;5070337;28;20067;-72
2022/12/08 06:57:53;;;;;;;19.02;12.48;;;22.00;59.30;;;;;;5070086;28;20036;-74
2022/12/08 07:00:20;;;;;;;15.65;10.27;;;22.00;59.80;;;;;;5070120;28;20373;-72
2022/12/08 07:02:46;;;;;;;12.07;7.72;;;21.90;59.90;;;;;;5070215;28;20062;-74
2022/12/08 07:05:12;;;;;;;10.95;6.90;;;21.80;59.90;;;;;;5070370;28;20477;-72
2022/12/08 07:07:38;;;;;;;11.90;7.82;;;21.80;60.30;;;;;;5068680;28;20071;-73
2022/12/08 07:10:04;;;;;;;8.43;6.65;;;21.60;60.40;;;;;;5068152;28;20041;-73
2022/12/08 07:12:30;;;;;;;8.38;5.88;;;21.60;60.60;;;;;;5053582;28;20106;-72
2022/12/08 07:14:56;;;;;;;7.15;5.80;;;21.60;61.40;;;;;;5053622;28;20677;-71
2022/12/08 07:17:22;;;;;;;7.57;4.85;;;21.50;62.30;;;;;;5036051;28;20036;-70
2022/12/08 07:19:48;;;;;;;9.52;5.25;;;21.50;62.20;;;;;;5053797;28;20044;-70
2022/12/08 07:22:14;;;;;;;7.95;5.63;;;21.90;61.00;;;;;;5053746;28;20486;-69
2022/12/08 07:24:40;;;;;;;8.70;5.30;;;21.90;59.30;;;;;;5053385;28;20040;-70
2022/12/08 07:27:06;;;;;;;7.82;4.78;;;22.00;58.20;;;;;;5052992;28;20106;-70
2022/12/08 07:29:32;;;;;;;8.75;6.07;;;22.10;57.10;;;;;;5052461;28;20123;-69
2022/12/08 07:31:58;;;;;;;13.00;7.70;;;22.20;56.20;;;;;;5052477;28;20393;-71
2022/12/08 07:34:24;;;;;;;14.48;8.63;;;22.20;55.30;;;;;;5052374;28;20028;-70
2022/12/08 07:36:50;;;;;;;18.60;11.57;;;22.30;54.80;;;;;;5052429;28;20048;-72
2022/12/08 07:39:16;;;;;;;15.05;10.70;;;22.30;54.60;;;;;;5001442;28;20041;-70
2022/12/08 07:41:42;;;;;;;11.80;7.55;;;22.30;54.40;;;;;;5053178;28;20033;-71
2022/12/08 07:44:08;;;;;;;10.27;7.72;;;22.40;54.40;;;;;;5058198;28;20477;-70
2022/12/08 07:46:34;;;;;;;7.95;5.82;;;22.60;54.80;;;;;;5073024;28;20059;-72
2022/12/08 07:49:00;;;;;;;8.60;5.85;;;22.50;55.00;;;;;;5055201;28;20031;-73
2022/12/08 07:51:26;;;;;;;11.57;7.40;;;22.50;55.10;;;;;;5073158;28;20486;-73
2022/12/08 07:53:52;;;;;;;10.27;6.40;;;22.60;54.90;;;;;;5072918;28;20044;-70
2022/12/08 07:56:18;;;;;;;10.75;7.03;;;22.60;54.40;;;;;;5072771;28;20099;-73
2022/12/08 07:58:45;;;;;;;12.55;9.77;;;22.60;54.00;;;;;;5020602;28;20128;-70
2022/12/08 08:01:22;;;;;;;15.55;9.75;;;22.60;51.10;;;;;;5072770;28;20032;-70
2022/12/08 08:03:48;;;;;;;18.77;11.27;;;22.40;53.30;;;;;;5037111;28;20044;-74
2022/12/08 08:06:14;;;;;;;16.20;10.93;;;22.20;54.00;;;;;;5054827;28;20482;-72
2022/12/08 08:08:40;;;;;;;17.08;10.75;;;22.20;55.20;;;;;;5063101;28;20028;-72
2022/12/08 08:11:07;;;;;;;16.65;11.02;;;21.90;56.50;;;;;;5063105;28;20144;-74
2022/12/08 08:13:33;;;;;;;18.15;11.25;;;21.90;57.20;;;;;;5066341;28;20078;-70
2022/12/08 08:16:04;;;;;;;16.63;11.68;;;21.80;57.70;;;;;;5072177;28;20063;-72
2022/12/08 08:18:31;;;;;;;21.58;12.00;;;21.80;58.10;;;;;;5053699;28;20036;-72
2022/12/08 08:20:57;;;;;;;14.93;10.60;;;21.60;58.20;;;;;;5071781;28;20044;-74
2022/12/08 08:23:23;;;;;;;18.13;11.18;;;21.50;58.50;;;;;;5072429;28;20017;-73
2022/12/08 08:25:50;;;;;;;17.50;11.60;;;21.70;58.70;;;;;;5072370;28;20478;-68
2022/12/08 08:28:16;;;;;;;18.52;11.65;;;21.60;58.70;;;;;;5072393;28;20035;-67
2022/12/08 08:30:42;;;;;;;18.05;11.15;;;21.60;59.50;;;;;;5069164;28;20113;-69
2022/12/08 08:33:08;;;;;;;17.23;10.13;;;21.50;61.90;;;;;;5054210;28;20070;-68
2022/12/08 08:35:34;;;;;;;18.35;11.90;;;22.00;65.50;;;;;;5072312;28;20145;-69
2022/12/08 08:38:00;;;;;;;22.40;12.25;;;22.50;64.90;;;;;;5071387;28;20496;-70
2022/12/08 08:40:26;;;;;;;17.75;11.85;;;23.00;65.70;;;;;;5071560;28;20041;-70
2022/12/08 08:42:52;;;;;;;19.73;12.40;;;23.10;63.80;;;;;;5071145;28;20055;-68
2022/12/08 08:45:18;;;;;;;19.88;12.60;;;22.90;60.30;;;;;;5056393;28;20112;-67
2022/12/08 08:47:44;;;;;;;22.90;12.90;;;22.70;60.60;;;;;;5051374;28;20115;-73
2022/12/08 08:50:10;;;;;;;22.55;12.95;;;22.50;60.80;;;;;;5033427;28;20086;-68
2022/12/08 08:52:36;;;;;;;21.98;13.15;;;22.30;61.70;;;;;;5051433;28;20029;-69
2022/12/08 08:55:02;;;;;;;20.40;12.77;;;22.40;62.50;;;;;;5051864;28;20040;-68
2022/12/08 08:57:28;;;;;;;24.25;12.40;;;22.30;62.50;;;;;;5052001;28;20029;-67
2022/12/08 08:59:54;;;;;;;21.27;12.75;;;22.30;63.70;;;;;;5016345;28;20659;-69
2022/12/08 09:02:21;;;;;;;23.40;14.10;;;22.10;63.90;;;;;;5051835;28;20047;-67
2022/12/08 09:04:47;;;;;;;20.27;13.40;;;22.10;64.30;;;;;;5033713;28;20029;-69
2022/12/08 09:07:13;;;;;;;22.38;13.55;;;22.10;63.90;;;;;;5051391;28;20134;-71
2022/12/08 09:09:39;;;;;;;29.42;15.00;;;22.10;64.20;;;;;;5051414;28;20049;-67
2022/12/08 09:12:05;;;;;;;25.55;13.75;;;22.00;64.80;;;;;;5051435;28;20089;-68
2022/12/08 09:14:31;;;;;;;22.45;14.55;;;22.00;65.00;;;;;;5051126;28;20036;-68
2022/12/08 09:16:57;;;;;;;30.88;16.52;;;22.20;64.80;;;;;;5017787;28;20482;-68
2022/12/08 09:19:23;;;;;;;27.17;16.00;;;22.10;63.60;;;;;;5051348;28;20025;-69
2022/12/08 09:21:49;;;;;;;28.65;15.68;;;22.20;62.50;;;;;;5051148;28;20089;-69
2022/12/08 09:24:15;;;;;;;29.67;16.63;;;22.10;62.40;;;;;;5051337;28;20036;-69
2022/12/08 09:26:43;;;;;;;27.05;15.25;;;22.10;62.50;;;;;;5051361;28;20041;-69
2022/12/08 09:29:10;;;;;;;30.92;14.88;;;22.10;62.90;;;;;;5050704;28;20347;-70
2022/12/08 09:31:37;;;;;;;27.58;14.30;;;22.10;63.20;;;;;;5051235;28;20048;-70
2022/12/08 09:34:04;;;;;;;22.60;13.75;;;22.20;63.40;;;;;;5050901;28;20462;-69
2022/12/08 09:36:30;;;;;;;25.02;14.90;;;22.10;64.30;;;;;;5050964;28;20033;-68
2022/12/08 09:38:56;;;;;;;24.77;14.52;;;22.10;64.50;;;;;;5050715;28;20033;-67
2022/12/08 09:41:33;;;;;;;25.00;14.02;;;22.10;64.40;;;;;;5051188;28;20071;-71
2022/12/08 09:44:29;;;;;;;25.60;15.25;;;22.10;64.00;;;;;;5050889;28;20027;-70
2022/12/08 09:46:57;;;;;;;26.48;14.30;;;22.00;64.50;;;;;;5050849;28;20037;-70
2022/12/08 09:49:37;;;;;;;28.40;15.93;;;22.00;65.30;;;;;;5050833;28;20497;-68
2022/12/08 09:52:10;;;;;;;27.73;15.35;;;22.10;69.90;;;;;;5050936;28;20041;-68
2022/12/08 09:54:36;;;;;;;31.95;19.20;;;22.80;68.00;;;;;;5050897;28;20106;-67
2022/12/08 09:57:09;;;;;;;22.35;15.25;;;23.30;53.10;;;;;;5032368;28;20060;-69
2022/12/08 09:59:36;;;;;;;19.65;11.70;;;23.50;54.20;;;;;;5031799;28;20381;-70
2022/12/08 10:02:18;;;;;;;22.02;14.82;;;23.60;51.20;;;;;;5049960;28;20041;-71
2022/12/08 10:04:44;;;;;;;22.30;13.50;;;23.70;49.20;;;;;;5032703;28;20527;-71
2022/12/08 10:07:35;;;;;;;22.77;14.35;;;23.70;50.30;;;;;;5050876;28;20033;-68
2022/12/08 10:10:07;;;;;;;21.13;13.75;;;23.80;49.40;;;;;;5056828;28;20135;-68
2022/12/08 10:13:00;;;;;;;23.10;15.98;;;23.80;49.20;;;;;;5070751;28;20130;-68
2022/12/08 10:15:29;;;;;;;23.58;16.27;;;23.90;49.40;;;;;;5070839;28;20091;-68
2022/12/08 10:18:01;;;;;;;26.40;18.23;;;23.90;49.80;;;;;;5070177;28;20040;-68
2022/12/08 10:20:39;;;;;;;28.98;19.23;;;23.90;50.10;;;;;;5069481;28;20051;-68
2022/12/08 10:23:11;;;;;;;34.38;21.98;;;24.00;50.40;;;;;;5070778;28;20044;-68
2022/12/08 10:25:45;;;;;;;33.03;19.30;;;24.80;60.10;;;;;;5070857;28;20060;-67
2022/12/08 10:28:12;;;;;;;37.38;18.95;;;25.50;52.30;;;;;;5070236;28;20032;-67
2022/12/08 10:30:38;;;;;;;35.63;18.33;;;25.30;53.40;;;;;;5077840;28;20090;-68
2022/12/08 10:33:05;;;;;;;34.33;20.73;;;25.30;58.00;;;;;;5090776;28;20035;-67
2022/12/08 10:35:52;;;;;;;39.40;19.55;;;25.00;57.20;;;;;;5091025;28;20034;-68
2022/12/08 10:38:28;;;;;;;28.38;14.95;;;24.70;57.90;;;;;;5084826;28;20055;-68
2022/12/08 10:41:19;;;;;;;28.98;17.55;;;24.50;58.10;;;;;;5090565;28;20040;-67
2022/12/08 10:43:48;;;;;;;42.42;21.48;;;24.30;58.50;;;;;;5092582;28;20493;-67
2022/12/08 10:46:18;;;;;;;36.22;21.10;;;24.30;58.80;;;;;;5074413;28;20028;-69
2022/12/08 10:48:52;;;;;;;37.92;20.73;;;24.20;61.60;;;;;;5073971;28;20515;-68
2022/12/08 10:51:42;;;;;;;31.13;17.33;;;24.60;67.00;;;;;;5074218;28;20067;-68
2022/12/08 10:54:27;;;;;;;31.52;19.05;;;25.00;63.10;;;;;;5084285;28;20671;-66
2022/12/08 10:56:56;;;;;;;29.08;18.33;;;25.30;57.80;;;;;;5079493;28;20032;-68
2022/12/08 10:59:24;;;;;;;35.10;20.23;;;25.40;45.90;;;;;;5094312;28;20115;-68
2022/12/08 11:01:55;;;;;;;27.33;17.25;;;25.30;41.60;;;;;;5081564;28;20028;-69
2022/12/08 11:04:35;;;;;;;29.55;16.98;;;25.00;43.50;;;;;;5074172;28;20032;-69
2022/12/08 11:07:07;;;;;;;30.33;16.77;;;25.00;56.40;;;;;;5076394;28;20044;-67
2022/12/08 11:09:46;;;;;;;26.13;15.45;;;25.00;57.80;;;;;;5073558;28;20039;-67
2022/12/08 11:12:15;;;;;;;29.98;16.27;;;25.00;57.20;;;;;;5073587;28;20040;-68
2022/12/08 11:14:41;;;;;;;29.33;17.35;;;24.70;57.70;;;;;;5073924;28;20032;-67
2022/12/08 11:17:22;;;;;;;27.15;16.55;;;24.60;58.20;;;;;;5073655;28;20454;-66
2022/12/08 11:20:07;;;;;;;32.15;17.17;;;24.50;58.90;;;;;;5055692;28;20028;-67
2022/12/08 11:22:45;;;;;;;27.60;16.52;;;24.30;59.50;;;;;;5073549;28;20072;-67
2022/12/08 11:25:23;;;;;;;32.03;17.13;;;24.20;59.90;;;;;;5073613;28;20094;-67
2022/12/08 11:27:51;;;;;;;32.38;17.30;;;24.10;60.10;;;;;;5087762;28;20032;-67
2022/12/08 11:30:30;;;;;;;34.05;17.92;;;24.10;60.50;;;;;;5093534;28;20032;-67
2022/12/08 11:33:14;;;;;;;31.60;17.45;;;23.90;60.90;;;;;;5093534;28;20044;-68
2022/12/08 11:35:43;;;;;;;27.80;16.15;;;23.80;61.20;;;;;;5041123;28;20665;-68
2022/12/08 11:38:24;;;;;;;14.55;7.65;;;23.80;50.80;;;;;;5093689;28;20106;-68
2022/12/08 11:40:54;;;;;;;25.92;13.60;;;23.90;46.70;;;;;;5075171;28;20047;-67
2022/12/08 11:43:50;;;;;;;22.10;12.13;;;23.90;54.90;;;;;;5093572;28;20039;-68
2022/12/08 11:46:31;;;;;;;21.48;12.60;;;24.00;59.00;;;;;;5011004;28;20411;-67
2022/12/08 11:49:03;;;;;;;22.83;13.38;;;24.10;58.90;;;;;;5010703;28;20040;-65
2022/12/08 11:51:37;;;;;;;24.23;13.00;;;24.00;59.20;;;;;;5010764;28;20046;-67
2022/12/08 11:54:12;;;;;;;23.52;13.25;;;23.90;59.50;;;;;;5010486;28;20375;-67
2022/12/08 11:57:03;;;;;;;25.15;13.32;;;23.80;60.00;;;;;;5010483;28;20049;-69
2022/12/08 11:59:44;;;;;;;29.88;14.85;;;23.70;60.70;;;;;;5010903;28;20073;-69
2022/12/08 12:02:20;;;;;;;24.55;13.90;;;23.60;60.80;;;;;;5010505;28;20057;-71
2022/12/08 12:04:53;;;;;;;21.38;13.75;;;23.40;61.20;;;;;;4952192;29;20408;-72
2022/12/08 12:07:31;;;;;;;23.88;12.98;;;23.50;61.40;;;;;;4952190;29;20046;-70
2022/12/08 12:10:38;;;;;;;22.45;13.00;;;23.30;61.90;;;;;;4941430;28;20578;-71
2022/12/08 12:13:19;;;;;;;18.10;12.00;;;23.20;61.80;;;;;;4895110;29;20115;-72
2022/12/08 12:16:06;;;;;;;23.52;12.95;;;23.20;61.80;;;;;;4894979;29;20113;-68
2022/12/08 12:18:45;;;;;;;23.92;12.55;;;23.10;62.30;;;;;;4895186;29;20170;-69
2022/12/08 12:21:11;;;;;;;20.98;12.23;;;23.00;62.40;;;;;;4879374;29;20763;-69
2022/12/08 12:23:46;;;;;;;20.23;12.77;;;22.90;62.60;;;;;;4938580;29;20186;-69
2022/12/08 12:26:22;;;;;;;20.98;12.20;;;22.80;62.40;;;;;;4951894;29;20047;-69
2022/12/08 12:28:51;;;;;;;21.67;12.27;;;22.90;62.40;;;;;;4952026;29;20440;-70
2022/12/08 12:31:22;;;;;;;23.48;12.90;;;22.90;62.20;;;;;;4951855;29;20054;-69
2022/12/08 12:33:48;;;;;;;19.13;12.73;;;23.00;62.50;;;;;;4951923;29;20043;-67
2022/12/08 12:36:15;;;;;;;19.30;12.23;;;22.90;62.50;;;;;;4982353;28;20160;-66
2022/12/08 12:39:05;;;;;;;17.92;11.80;;;22.90;62.70;;;;;;4977581;28;20076;-68
2022/12/08 12:41:43;;;;;;;21.35;12.73;;;22.80;61.90;;;;;;5009780;28;20120;-68
2022/12/08 12:44:23;;;;;;;20.42;12.50;;;23.00;63.00;;;;;;5009781;28;20451;-70
2022/12/08 12:46:49;;;;;;;20.17;11.50;;;23.10;65.00;;;;;;5010018;28;20129;-66
2022/12/08 12:49:42;;;;;;;18.73;12.05;;;23.10;64.30;;;;;;5043043;28;20131;-67
2022/12/08 12:52:20;;;;;;;22.23;12.65;;;23.00;63.80;;;;;;5092198;28;20085;-69
2022/12/08 12:54:49;;;;;;;21.40;11.82;;;23.20;63.40;;;;;;5092043;28;20465;-69
2022/12/08 12:57:17;;;;;;;23.30;12.77;;;23.00;63.10;;;;;;5092006;28;20032;-68